sensor_id;sensor_type;location;lat;lon;timestamp;P1;durP1;ratioP1;P2;durP2;ratioP2
22531;SDS011;11432;46.924;7.114;2023-04-09T00:01:47;5.95;;;3.83;;
22531;SDS011;11432;46.924;7.114;2023-04-09T00:04:13;5.55;;;3.80;;
22531;SDS011;11432;46.924;7.114;2023-04-09T00:06:39;5.32;;;3.67;;
22531;SDS011;11432;46.924;7.114;2023-04-09T00:09:05;4.88;;;3.67;;
22531;SDS011;11432;46.924;7.114;2023-04-09T00:11:31;5.95;;;4.18;;
22531;SDS011;11432;46.924;7.114;2023-04-09T00:13:57;5.40;;;3.90;;
22531;SDS011;11432;46.924;7.114;2023-04-09T00:16:23;5.72;;;4.30;;
22531;SDS011;11432;46.924;7.114;2023-04-09T00:18:48;6.45;;;4.40;;
22531;SDS011;11432;46.924;7.114;2023-04-09T00:21:14;5.72;;;4.43;;
22531;SDS011;11432;46.924;7.114;2023-04-09T00:23:40;6.18;;;4.60;;
22531;SDS011;11432;46.924;7.114;2023-04-09T00:26:06;5.75;;;4.63;;
22531;SDS011;11432;46.924;7.114;2023-04-09T00:28:32;6.13;;;4.32;;
22531;SDS011;11432;46.924;7.114;2023-04-09T00:30:58;7.80;;;4.95;;
22531;SDS011;11432;46.924;7.114;2023-04-09T00:33:23;7.78;;;5.30;;
22531;SDS011;11432;46.924;7.114;2023-04-09T00:35:49;7.20;;;5.90;;
22531;SDS011;11432;46.924;7.114;2023-04-09T00:38:15;6.72;;;5.03;;
22531;SDS011;11432;46.924;7.114;2023-04-09T00:40:41;6.85;;;5.20;;
22531;SDS011;11432;46.924;7.114;2023-04-09T00:43:06;7.70;;;5.45;;
22531;SDS011;11432;46.924;7.114;2023-04-09T00:45:32;7.30;;;5.00;;
22531;SDS011;11432;46.924;7.114;2023-04-09T00:47:58;7.35;;;5.45;;
22531;SDS011;11432;46.924;7.114;2023-04-09T00:50:23;7.20;;;5.50;;
22531;SDS011;11432;46.924;7.114;2023-04-09T00:52:49;7.40;;;5.93;;
22531;SDS011;11432;46.924;7.114;2023-04-09T00:55:15;8.15;;;5.93;;
22531;SDS011;11432;46.924;7.114;2023-04-09T00:57:42;9.55;;;6.47;;
22531;SDS011;11432;46.924;7.114;2023-04-09T01:00:07;8.57;;;6.40;;
22531;SDS011;11432;46.924;7.114;2023-04-09T01:02:35;8.70;;;6.03;;
22531;SDS011;11432;46.924;7.114;2023-04-09T01:05:01;7.40;;;5.97;;
22531;SDS011;11432;46.924;7.114;2023-04-09T01:15:45;8.52;;;6.75;;
22531;SDS011;11432;46.924;7.114;2023-04-09T01:20:59;9.55;;;7.28;;
22531;SDS011;11432;46.924;7.114;2023-04-09T01:29:10;13.00;;;7.93;;
22531;SDS011;11432;46.924;7.114;2023-04-09T01:31:38;9.93;;;7.82;;
22531;SDS011;11432;46.924;7.114;2023-04-09T01:36:33;9.07;;;7.60;;
22531;SDS011;11432;46.924;7.114;2023-04-09T01:39:00;9.75;;;7.55;;
22531;SDS011;11432;46.924;7.114;2023-04-09T01:41:26;12.13;;;7.95;;
22531;SDS011;11432;46.924;7.114;2023-04-09T01:43:54;10.02;;;7.65;;
22531;SDS011;11432;46.924;7.114;2023-04-09T01:46:21;9.65;;;7.53;;
22531;SDS011;11432;46.924;7.114;2023-04-09T01:48:48;10.82;;;8.30;;
22531;SDS011;11432;46.924;7.114;2023-04-09T01:51:15;9.65;;;7.57;;
22531;SDS011;11432;46.924;7.114;2023-04-09T01:53:41;9.20;;;7.65;;
22531;SDS011;11432;46.924;7.114;2023-04-09T01:56:07;10.15;;;7.80;;
22531;SDS011;11432;46.924;7.114;2023-04-09T01:58:33;9.98;;;8.05;;
22531;SDS011;11432;46.924;7.114;2023-04-09T02:01:04;12.82;;;8.50;;
22531;SDS011;11432;46.924;7.114;2023-04-09T02:03:55;12.77;;;8.48;;
22531;SDS011;11432;46.924;7.114;2023-04-09T02:09:10;10.40;;;7.88;;
22531;SDS011;11432;46.924;7.114;2023-04-09T02:11:39;10.45;;;7.95;;
22531;SDS011;11432;46.924;7.114;2023-04-09T02:14:07;9.98;;;7.47;;
22531;SDS011;11432;46.924;7.114;2023-04-09T02:16:35;10.55;;;8.18;;
22531;SDS011;11432;46.924;7.114;2023-04-09T02:19:01;9.48;;;7.78;;
22531;SDS011;11432;46.924;7.114;2023-04-09T02:21:27;9.98;;;7.78;;
22531;SDS011;11432;46.924;7.114;2023-04-09T02:23:54;10.35;;;8.02;;
22531;SDS011;11432;46.924;7.114;2023-04-09T02:26:20;9.93;;;7.93;;
22531;SDS011;11432;46.924;7.114;2023-04-09T02:28:46;8.80;;;7.20;;
22531;SDS011;11432;46.924;7.114;2023-04-09T02:31:12;10.40;;;7.97;;
22531;SDS011;11432;46.924;7.114;2023-04-09T02:33:38;9.55;;;7.30;;
22531;SDS011;11432;46.924;7.114;2023-04-09T02:36:04;11.10;;;7.75;;
22531;SDS011;11432;46.924;7.114;2023-04-09T02:38:30;10.43;;;7.95;;
22531;SDS011;11432;46.924;7.114;2023-04-09T02:40:56;10.27;;;8.20;;
22531;SDS011;11432;46.924;7.114;2023-04-09T02:43:21;10.73;;;7.82;;
22531;SDS011;11432;46.924;7.114;2023-04-09T02:45:47;10.35;;;8.13;;
22531;SDS011;11432;46.924;7.114;2023-04-09T02:48:13;10.35;;;7.90;;
22531;SDS011;11432;46.924;7.114;2023-04-09T02:50:39;10.55;;;8.35;;
22531;SDS011;11432;46.924;7.114;2023-04-09T02:53:04;11.55;;;8.10;;
22531;SDS011;11432;46.924;7.114;2023-04-09T02:55:30;10.18;;;7.95;;
22531;SDS011;11432;46.924;7.114;2023-04-09T02:57:56;8.35;;;7.15;;
22531;SDS011;11432;46.924;7.114;2023-04-09T03:00:21;10.55;;;8.00;;
22531;SDS011;11432;46.924;7.114;2023-04-09T03:02:47;10.18;;;8.48;;
22531;SDS011;11432;46.924;7.114;2023-04-09T03:05:13;10.82;;;7.63;;
22531;SDS011;11432;46.924;7.114;2023-04-09T03:07:38;11.43;;;8.35;;
22531;SDS011;11432;46.924;7.114;2023-04-09T03:10:04;11.23;;;8.27;;
22531;SDS011;11432;46.924;7.114;2023-04-09T03:12:30;11.10;;;9.05;;
22531;SDS011;11432;46.924;7.114;2023-04-09T03:14:55;15.60;;;9.57;;
22531;SDS011;11432;46.924;7.114;2023-04-09T03:17:21;13.55;;;10.20;;
22531;SDS011;11432;46.924;7.114;2023-04-09T03:19:49;13.75;;;9.60;;
22531;SDS011;11432;46.924;7.114;2023-04-09T03:22:15;13.90;;;10.20;;
22531;SDS011;11432;46.924;7.114;2023-04-09T03:24:41;14.68;;;10.50;;
22531;SDS011;11432;46.924;7.114;2023-04-09T03:27:06;14.20;;;10.68;;
22531;SDS011;11432;46.924;7.114;2023-04-09T03:29:32;11.90;;;10.05;;
22531;SDS011;11432;46.924;7.114;2023-04-09T03:31:57;12.63;;;10.02;;
22531;SDS011;11432;46.924;7.114;2023-04-09T03:34:23;14.13;;;10.25;;
22531;SDS011;11432;46.924;7.114;2023-04-09T03:36:48;13.02;;;9.65;;
22531;SDS011;11432;46.924;7.114;2023-04-09T03:39:14;13.88;;;10.65;;
22531;SDS011;11432;46.924;7.114;2023-04-09T03:41:40;14.30;;;11.00;;
22531;SDS011;11432;46.924;7.114;2023-04-09T03:44:05;13.60;;;10.38;;
22531;SDS011;11432;46.924;7.114;2023-04-09T03:46:31;13.23;;;10.75;;
22531;SDS011;11432;46.924;7.114;2023-04-09T03:48:56;14.43;;;10.50;;
22531;SDS011;11432;46.924;7.114;2023-04-09T03:51:22;13.90;;;10.65;;
22531;SDS011;11432;46.924;7.114;2023-04-09T03:53:47;13.05;;;10.73;;
22531;SDS011;11432;46.924;7.114;2023-04-09T03:56:13;14.50;;;11.38;;
22531;SDS011;11432;46.924;7.114;2023-04-09T03:58:39;14.25;;;10.80;;
22531;SDS011;11432;46.924;7.114;2023-04-09T04:01:04;15.93;;;10.93;;
22531;SDS011;11432;46.924;7.114;2023-04-09T04:03:30;14.98;;;11.23;;
22531;SDS011;11432;46.924;7.114;2023-04-09T04:05:59;15.15;;;11.25;;
22531;SDS011;11432;46.924;7.114;2023-04-09T04:08:26;14.32;;;10.85;;
22531;SDS011;11432;46.924;7.114;2023-04-09T04:10:52;15.13;;;11.40;;
22531;SDS011;11432;46.924;7.114;2023-04-09T04:13:17;15.98;;;12.25;;
22531;SDS011;11432;46.924;7.114;2023-04-09T04:15:43;17.33;;;12.07;;
22531;SDS011;11432;46.924;7.114;2023-04-09T04:18:09;15.48;;;11.27;;
22531;SDS011;11432;46.924;7.114;2023-04-09T04:20:35;15.30;;;12.05;;
22531;SDS011;11432;46.924;7.114;2023-04-09T04:23:02;15.82;;;11.88;;
22531;SDS011;11432;46.924;7.114;2023-04-09T04:25:28;16.10;;;11.48;;
22531;SDS011;11432;46.924;7.114;2023-04-09T04:27:53;15.35;;;11.48;;
22531;SDS011;11432;46.924;7.114;2023-04-09T04:30:20;14.23;;;11.43;;
22531;SDS011;11432;46.924;7.114;2023-04-09T04:32:46;15.85;;;11.57;;
22531;SDS011;11432;46.924;7.114;2023-04-09T04:35:12;17.88;;;12.02;;
22531;SDS011;11432;46.924;7.114;2023-04-09T04:37:38;15.63;;;12.57;;
22531;SDS011;11432;46.924;7.114;2023-04-09T04:40:04;18.38;;;11.90;;
22531;SDS011;11432;46.924;7.114;2023-04-09T04:42:31;14.98;;;12.40;;
22531;SDS011;11432;46.924;7.114;2023-04-09T04:44:57;15.75;;;12.15;;
22531;SDS011;11432;46.924;7.114;2023-04-09T04:47:22;16.48;;;12.00;;
22531;SDS011;11432;46.924;7.114;2023-04-09T04:49:48;15.95;;;12.50;;
22531;SDS011;11432;46.924;7.114;2023-04-09T04:52:13;17.85;;;12.05;;
22531;SDS011;11432;46.924;7.114;2023-04-09T04:54:39;15.32;;;12.05;;
22531;SDS011;11432;46.924;7.114;2023-04-09T04:57:05;15.85;;;12.50;;
22531;SDS011;11432;46.924;7.114;2023-04-09T04:59:30;17.73;;;12.18;;
22531;SDS011;11432;46.924;7.114;2023-04-09T05:01:56;17.40;;;12.07;;
22531;SDS011;11432;46.924;7.114;2023-04-09T05:04:21;15.57;;;11.98;;
22531;SDS011;11432;46.924;7.114;2023-04-09T05:06:47;17.10;;;12.75;;
22531;SDS011;11432;46.924;7.114;2023-04-09T05:09:13;15.88;;;12.85;;
22531;SDS011;11432;46.924;7.114;2023-04-09T05:11:38;16.13;;;12.68;;
22531;SDS011;11432;46.924;7.114;2023-04-09T05:14:04;16.15;;;11.75;;
22531;SDS011;11432;46.924;7.114;2023-04-09T05:16:30;15.27;;;12.10;;
22531;SDS011;11432;46.924;7.114;2023-04-09T05:18:56;14.50;;;11.48;;
22531;SDS011;11432;46.924;7.114;2023-04-09T05:21:21;17.98;;;12.07;;
22531;SDS011;11432;46.924;7.114;2023-04-09T05:23:47;16.95;;;12.43;;
22531;SDS011;11432;46.924;7.114;2023-04-09T05:26:12;15.93;;;12.38;;
22531;SDS011;11432;46.924;7.114;2023-04-09T05:28:38;15.00;;;11.80;;
22531;SDS011;11432;46.924;7.114;2023-04-09T05:31:04;17.60;;;12.60;;
22531;SDS011;11432;46.924;7.114;2023-04-09T05:33:35;15.73;;;12.35;;
22531;SDS011;11432;46.924;7.114;2023-04-09T05:36:02;16.15;;;12.10;;
22531;SDS011;11432;46.924;7.114;2023-04-09T05:38:27;15.43;;;11.45;;
22531;SDS011;11432;46.924;7.114;2023-04-09T05:40:53;15.43;;;11.30;;
22531;SDS011;11432;46.924;7.114;2023-04-09T05:43:19;16.25;;;11.70;;
22531;SDS011;11432;46.924;7.114;2023-04-09T05:45:45;13.82;;;11.43;;
22531;SDS011;11432;46.924;7.114;2023-04-09T05:48:11;14.77;;;11.45;;
22531;SDS011;11432;46.924;7.114;2023-04-09T05:50:37;16.02;;;11.63;;
22531;SDS011;11432;46.924;7.114;2023-04-09T05:53:02;17.17;;;10.93;;
22531;SDS011;11432;46.924;7.114;2023-04-09T05:55:29;13.73;;;10.70;;
22531;SDS011;11432;46.924;7.114;2023-04-09T05:57:56;14.93;;;11.07;;
22531;SDS011;11432;46.924;7.114;2023-04-09T06:00:22;14.10;;;10.98;;
22531;SDS011;11432;46.924;7.114;2023-04-09T06:02:47;15.13;;;11.10;;
22531;SDS011;11432;46.924;7.114;2023-04-09T06:05:13;16.45;;;11.52;;
22531;SDS011;11432;46.924;7.114;2023-04-09T06:07:39;14.40;;;11.40;;
22531;SDS011;11432;46.924;7.114;2023-04-09T06:10:05;15.05;;;11.65;;
22531;SDS011;11432;46.924;7.114;2023-04-09T06:12:33;15.02;;;11.63;;
22531;SDS011;11432;46.924;7.114;2023-04-09T06:15:02;16.73;;;11.75;;
22531;SDS011;11432;46.924;7.114;2023-04-09T06:17:28;16.23;;;12.02;;
22531;SDS011;11432;46.924;7.114;2023-04-09T06:19:54;15.65;;;11.57;;
22531;SDS011;11432;46.924;7.114;2023-04-09T06:22:20;14.90;;;10.68;;
22531;SDS011;11432;46.924;7.114;2023-04-09T06:24:45;12.38;;;9.57;;
22531;SDS011;11432;46.924;7.114;2023-04-09T06:27:11;18.30;;;13.70;;
22531;SDS011;11432;46.924;7.114;2023-04-09T06:29:36;19.40;;;13.13;;
22531;SDS011;11432;46.924;7.114;2023-04-09T06:32:02;18.00;;;13.32;;
22531;SDS011;11432;46.924;7.114;2023-04-09T06:34:28;18.27;;;12.65;;
22531;SDS011;11432;46.924;7.114;2023-04-09T06:36:53;17.02;;;12.10;;
22531;SDS011;11432;46.924;7.114;2023-04-09T06:39:19;16.35;;;11.73;;
22531;SDS011;11432;46.924;7.114;2023-04-09T06:41:45;17.45;;;11.93;;
22531;SDS011;11432;46.924;7.114;2023-04-09T06:44:11;18.45;;;12.38;;
22531;SDS011;11432;46.924;7.114;2023-04-09T06:46:37;15.55;;;11.73;;
22531;SDS011;11432;46.924;7.114;2023-04-09T06:49:02;18.63;;;12.63;;
22531;SDS011;11432;46.924;7.114;2023-04-09T06:51:28;17.17;;;12.70;;
22531;SDS011;11432;46.924;7.114;2023-04-09T06:53:54;15.43;;;12.00;;
22531;SDS011;11432;46.924;7.114;2023-04-09T06:56:19;14.85;;;11.80;;
22531;SDS011;11432;46.924;7.114;2023-04-09T06:58:45;16.38;;;12.73;;
22531;SDS011;11432;46.924;7.114;2023-04-09T07:01:11;15.82;;;12.13;;
22531;SDS011;11432;46.924;7.114;2023-04-09T07:03:36;16.65;;;12.30;;
22531;SDS011;11432;46.924;7.114;2023-04-09T07:06:02;15.05;;;11.20;;
22531;SDS011;11432;46.924;7.114;2023-04-09T07:08:28;15.88;;;11.35;;
22531;SDS011;11432;46.924;7.114;2023-04-09T07:10:54;16.45;;;11.75;;
22531;SDS011;11432;46.924;7.114;2023-04-09T07:13:21;17.42;;;13.50;;
22531;SDS011;11432;46.924;7.114;2023-04-09T07:15:46;17.10;;;12.45;;
22531;SDS011;11432;46.924;7.114;2023-04-09T07:18:12;17.88;;;13.45;;
22531;SDS011;11432;46.924;7.114;2023-04-09T07:20:37;17.60;;;12.60;;
22531;SDS011;11432;46.924;7.114;2023-04-09T07:23:03;19.65;;;12.45;;
22531;SDS011;11432;46.924;7.114;2023-04-09T07:25:29;15.55;;;11.88;;
22531;SDS011;11432;46.924;7.114;2023-04-09T07:27:54;15.68;;;12.02;;
22531;SDS011;11432;46.924;7.114;2023-04-09T07:30:21;15.68;;;11.98;;
22531;SDS011;11432;46.924;7.114;2023-04-09T07:32:46;17.60;;;12.95;;
22531;SDS011;11432;46.924;7.114;2023-04-09T07:35:12;15.60;;;11.52;;
22531;SDS011;11432;46.924;7.114;2023-04-09T07:37:37;16.75;;;11.93;;
22531;SDS011;11432;46.924;7.114;2023-04-09T07:40:03;13.73;;;10.63;;
22531;SDS011;11432;46.924;7.114;2023-04-09T07:42:29;16.42;;;12.25;;
22531;SDS011;11432;46.924;7.114;2023-04-09T07:44:55;16.02;;;12.18;;
22531;SDS011;11432;46.924;7.114;2023-04-09T07:47:21;15.18;;;12.02;;
22531;SDS011;11432;46.924;7.114;2023-04-09T07:49:47;15.02;;;11.57;;
22531;SDS011;11432;46.924;7.114;2023-04-09T07:52:13;16.00;;;11.40;;
22531;SDS011;11432;46.924;7.114;2023-04-09T07:54:39;17.63;;;12.52;;
22531;SDS011;11432;46.924;7.114;2023-04-09T07:57:05;17.38;;;12.40;;
22531;SDS011;11432;46.924;7.114;2023-04-09T07:59:33;16.75;;;11.45;;
22531;SDS011;11432;46.924;7.114;2023-04-09T08:02:00;16.80;;;10.55;;
22531;SDS011;11432;46.924;7.114;2023-04-09T08:04:25;12.85;;;9.52;;
22531;SDS011;11432;46.924;7.114;2023-04-09T08:06:51;12.85;;;9.02;;
22531;SDS011;11432;46.924;7.114;2023-04-09T08:09:19;17.40;;;12.60;;
22531;SDS011;11432;46.924;7.114;2023-04-09T08:11:45;16.27;;;12.80;;
22531;SDS011;11432;46.924;7.114;2023-04-09T08:14:12;14.27;;;10.07;;
22531;SDS011;11432;46.924;7.114;2023-04-09T08:16:41;17.08;;;10.98;;
22531;SDS011;11432;46.924;7.114;2023-04-09T08:19:08;16.05;;;11.98;;
22531;SDS011;11432;46.924;7.114;2023-04-09T08:21:38;16.63;;;11.02;;
22531;SDS011;11432;46.924;7.114;2023-04-09T08:24:07;13.27;;;8.55;;
22531;SDS011;11432;46.924;7.114;2023-04-09T08:26:36;13.65;;;9.95;;
22531;SDS011;11432;46.924;7.114;2023-04-09T08:29:03;13.75;;;8.23;;
22531;SDS011;11432;46.924;7.114;2023-04-09T08:31:28;13.15;;;9.40;;
22531;SDS011;11432;46.924;7.114;2023-04-09T08:33:54;12.18;;;9.02;;
22531;SDS011;11432;46.924;7.114;2023-04-09T08:36:20;7.68;;;4.95;;
22531;SDS011;11432;46.924;7.114;2023-04-09T08:38:46;14.65;;;10.18;;
22531;SDS011;11432;46.924;7.114;2023-04-09T08:41:19;14.10;;;10.50;;
22531;SDS011;11432;46.924;7.114;2023-04-09T08:43:47;14.63;;;9.95;;
22531;SDS011;11432;46.924;7.114;2023-04-09T08:46:13;14.98;;;10.65;;
22531;SDS011;11432;46.924;7.114;2023-04-09T08:48:42;15.18;;;11.57;;
22531;SDS011;11432;46.924;7.114;2023-04-09T08:51:11;14.60;;;10.88;;
22531;SDS011;11432;46.924;7.114;2023-04-09T08:53:42;13.55;;;10.18;;
22531;SDS011;11432;46.924;7.114;2023-04-09T08:56:29;12.82;;;9.65;;
22531;SDS011;11432;46.924;7.114;2023-04-09T08:58:54;14.48;;;10.50;;
22531;SDS011;11432;46.924;7.114;2023-04-09T09:01:21;14.48;;;10.38;;
22531;SDS011;11432;46.924;7.114;2023-04-09T09:04:01;12.75;;;9.43;;
22531;SDS011;11432;46.924;7.114;2023-04-09T09:06:29;16.27;;;10.73;;
22531;SDS011;11432;46.924;7.114;2023-04-09T09:09:01;15.82;;;11.25;;
22531;SDS011;11432;46.924;7.114;2023-04-09T09:11:31;14.23;;;10.95;;
22531;SDS011;11432;46.924;7.114;2023-04-09T09:14:04;11.07;;;7.65;;
22531;SDS011;11432;46.924;7.114;2023-04-09T09:16:35;14.82;;;10.70;;
22531;SDS011;11432;46.924;7.114;2023-04-09T09:19:06;15.15;;;11.45;;
22531;SDS011;11432;46.924;7.114;2023-04-09T09:21:32;13.70;;;8.90;;
22531;SDS011;11432;46.924;7.114;2023-04-09T09:23:58;14.05;;;10.93;;
22531;SDS011;11432;46.924;7.114;2023-04-09T09:26:28;11.90;;;8.77;;
22531;SDS011;11432;46.924;7.114;2023-04-09T09:28:55;12.40;;;8.98;;
22531;SDS011;11432;46.924;7.114;2023-04-09T09:31:24;12.93;;;10.35;;
22531;SDS011;11432;46.924;7.114;2023-04-09T09:33:51;14.15;;;9.93;;
22531;SDS011;11432;46.924;7.114;2023-04-09T09:36:32;13.63;;;9.85;;
22531;SDS011;11432;46.924;7.114;2023-04-09T09:38:59;14.43;;;11.10;;
22531;SDS011;11432;46.924;7.114;2023-04-09T09:41:33;13.25;;;9.85;;
22531;SDS011;11432;46.924;7.114;2023-04-09T09:43:59;14.25;;;10.48;;
22531;SDS011;11432;46.924;7.114;2023-04-09T09:46:25;13.75;;;9.82;;
22531;SDS011;11432;46.924;7.114;2023-04-09T09:48:52;10.63;;;8.02;;
22531;SDS011;11432;46.924;7.114;2023-04-09T09:51:18;14.40;;;9.98;;
22531;SDS011;11432;46.924;7.114;2023-04-09T09:53:46;13.68;;;10.40;;
22531;SDS011;11432;46.924;7.114;2023-04-09T09:56:17;13.20;;;8.27;;
22531;SDS011;11432;46.924;7.114;2023-04-09T09:58:51;9.57;;;7.55;;
22531;SDS011;11432;46.924;7.114;2023-04-09T10:01:24;14.13;;;11.13;;
22531;SDS011;11432;46.924;7.114;2023-04-09T10:03:51;11.10;;;8.48;;
22531;SDS011;11432;46.924;7.114;2023-04-09T10:06:20;12.32;;;9.43;;
22531;SDS011;11432;46.924;7.114;2023-04-09T10:08:47;13.75;;;10.80;;
22531;SDS011;11432;46.924;7.114;2023-04-09T10:11:13;12.52;;;8.73;;
22531;SDS011;11432;46.924;7.114;2023-04-09T10:13:40;15.07;;;10.75;;
22531;SDS011;11432;46.924;7.114;2023-04-09T10:16:10;12.77;;;8.40;;
22531;SDS011;11432;46.924;7.114;2023-04-09T10:18:36;12.55;;;9.90;;
22531;SDS011;11432;46.924;7.114;2023-04-09T10:21:13;13.15;;;9.80;;
22531;SDS011;11432;46.924;7.114;2023-04-09T10:23:50;13.23;;;9.10;;
22531;SDS011;11432;46.924;7.114;2023-04-09T10:26:17;14.15;;;10.20;;
22531;SDS011;11432;46.924;7.114;2023-04-09T10:28:43;11.50;;;8.65;;
22531;SDS011;11432;46.924;7.114;2023-04-09T10:31:09;12.88;;;8.98;;
22531;SDS011;11432;46.924;7.114;2023-04-09T10:33:36;9.35;;;7.55;;
22531;SDS011;11432;46.924;7.114;2023-04-09T10:36:03;12.70;;;9.57;;
22531;SDS011;11432;46.924;7.114;2023-04-09T10:38:37;11.90;;;8.85;;
22531;SDS011;11432;46.924;7.114;2023-04-09T10:41:08;10.77;;;8.00;;
22531;SDS011;11432;46.924;7.114;2023-04-09T10:43:36;12.80;;;7.55;;
22531;SDS011;11432;46.924;7.114;2023-04-09T10:46:03;11.52;;;7.85;;
22531;SDS011;11432;46.924;7.114;2023-04-09T10:49:05;10.80;;;8.90;;
22531;SDS011;11432;46.924;7.114;2023-04-09T10:51:37;13.07;;;8.15;;
22531;SDS011;11432;46.924;7.114;2023-04-09T10:54:04;10.68;;;7.40;;
22531;SDS011;11432;46.924;7.114;2023-04-09T10:56:30;12.00;;;8.10;;
22531;SDS011;11432;46.924;7.114;2023-04-09T10:58:57;9.55;;;7.13;;
22531;SDS011;11432;46.924;7.114;2023-04-09T11:01:22;12.20;;;8.38;;
22531;SDS011;11432;46.924;7.114;2023-04-09T11:04:06;10.68;;;7.80;;
22531;SDS011;11432;46.924;7.114;2023-04-09T11:06:34;11.68;;;8.68;;
22531;SDS011;11432;46.924;7.114;2023-04-09T11:09:04;8.77;;;6.78;;
22531;SDS011;11432;46.924;7.114;2023-04-09T11:11:29;11.20;;;7.68;;
22531;SDS011;11432;46.924;7.114;2023-04-09T11:13:58;9.93;;;7.90;;
22531;SDS011;11432;46.924;7.114;2023-04-09T11:16:27;9.45;;;6.53;;
22531;SDS011;11432;46.924;7.114;2023-04-09T11:18:54;11.07;;;7.32;;
22531;SDS011;11432;46.924;7.114;2023-04-09T11:21:21;11.00;;;6.88;;
22531;SDS011;11432;46.924;7.114;2023-04-09T11:23:51;7.68;;;6.10;;
22531;SDS011;11432;46.924;7.114;2023-04-09T11:26:22;8.80;;;6.38;;
22531;SDS011;11432;46.924;7.114;2023-04-09T11:28:48;8.82;;;6.70;;
22531;SDS011;11432;46.924;7.114;2023-04-09T11:31:14;9.45;;;6.93;;
22531;SDS011;11432;46.924;7.114;2023-04-09T11:33:40;9.50;;;6.50;;
22531;SDS011;11432;46.924;7.114;2023-04-09T11:38:35;8.77;;;5.40;;
22531;SDS011;11432;46.924;7.114;2023-04-09T11:41:02;6.15;;;4.72;;
22531;SDS011;11432;46.924;7.114;2023-04-09T11:43:28;9.05;;;5.40;;
22531;SDS011;11432;46.924;7.114;2023-04-09T11:45:53;6.50;;;4.45;;
22531;SDS011;11432;46.924;7.114;2023-04-09T11:48:19;5.60;;;4.10;;
22531;SDS011;11432;46.924;7.114;2023-04-09T11:50:47;5.93;;;3.85;;
22531;SDS011;11432;46.924;7.114;2023-04-09T11:55:45;5.28;;;3.55;;
22531;SDS011;11432;46.924;7.114;2023-04-09T11:58:14;5.35;;;3.85;;
22531;SDS011;11432;46.924;7.114;2023-04-09T12:00:40;5.40;;;3.38;;
22531;SDS011;11432;46.924;7.114;2023-04-09T12:03:06;4.80;;;3.20;;
22531;SDS011;11432;46.924;7.114;2023-04-09T12:05:32;5.03;;;3.97;;
22531;SDS011;11432;46.924;7.114;2023-04-09T12:08:03;4.97;;;3.63;;
22531;SDS011;11432;46.924;7.114;2023-04-09T12:10:35;3.50;;;2.45;;
22531;SDS011;11432;46.924;7.114;2023-04-09T12:13:03;4.35;;;2.97;;
22531;SDS011;11432;46.924;7.114;2023-04-09T12:15:34;2.97;;;2.03;;
22531;SDS011;11432;46.924;7.114;2023-04-09T12:18:01;3.33;;;2.25;;
22531;SDS011;11432;46.924;7.114;2023-04-09T12:20:28;3.53;;;2.35;;
22531;SDS011;11432;46.924;7.114;2023-04-09T12:22:58;3.58;;;2.47;;
22531;SDS011;11432;46.924;7.114;2023-04-09T12:25:26;4.03;;;3.03;;
22531;SDS011;11432;46.924;7.114;2023-04-09T12:27:52;6.15;;;4.07;;
22531;SDS011;11432;46.924;7.114;2023-04-09T12:30:19;6.65;;;3.85;;
22531;SDS011;11432;46.924;7.114;2023-04-09T12:32:45;4.40;;;3.00;;
22531;SDS011;11432;46.924;7.114;2023-04-09T12:35:11;5.63;;;2.85;;
22531;SDS011;11432;46.924;7.114;2023-04-09T12:37:37;4.28;;;2.65;;
22531;SDS011;11432;46.924;7.114;2023-04-09T12:40:03;2.75;;;2.10;;
22531;SDS011;11432;46.924;7.114;2023-04-09T12:42:29;5.05;;;2.53;;
22531;SDS011;11432;46.924;7.114;2023-04-09T12:44:54;2.92;;;1.92;;
22531;SDS011;11432;46.924;7.114;2023-04-09T12:47:20;3.45;;;2.47;;
22531;SDS011;11432;46.924;7.114;2023-04-09T12:49:46;4.75;;;2.58;;
22531;SDS011;11432;46.924;7.114;2023-04-09T12:52:14;4.07;;;3.05;;
22531;SDS011;11432;46.924;7.114;2023-04-09T12:54:40;6.47;;;3.42;;
22531;SDS011;11432;46.924;7.114;2023-04-09T12:57:05;4.18;;;2.33;;
22531;SDS011;11432;46.924;7.114;2023-04-09T12:59:31;4.55;;;2.75;;
22531;SDS011;11432;46.924;7.114;2023-04-09T13:01:57;3.13;;;2.17;;
22531;SDS011;11432;46.924;7.114;2023-04-09T13:04:22;3.42;;;2.33;;
22531;SDS011;11432;46.924;7.114;2023-04-09T13:06:48;2.38;;;1.73;;
22531;SDS011;11432;46.924;7.114;2023-04-09T13:09:14;3.10;;;2.20;;
22531;SDS011;11432;46.924;7.114;2023-04-09T13:11:40;3.50;;;2.45;;
22531;SDS011;11432;46.924;7.114;2023-04-09T13:14:05;4.15;;;2.75;;
22531;SDS011;11432;46.924;7.114;2023-04-09T13:16:31;3.30;;;2.70;;
22531;SDS011;11432;46.924;7.114;2023-04-09T13:18:57;3.42;;;2.38;;
22531;SDS011;11432;46.924;7.114;2023-04-09T13:21:23;4.47;;;2.33;;
22531;SDS011;11432;46.924;7.114;2023-04-09T13:23:48;3.38;;;2.63;;
22531;SDS011;11432;46.924;7.114;2023-04-09T13:26:14;3.45;;;2.47;;
22531;SDS011;11432;46.924;7.114;2023-04-09T13:28:40;4.70;;;2.60;;
22531;SDS011;11432;46.924;7.114;2023-04-09T13:31:05;3.33;;;2.38;;
22531;SDS011;11432;46.924;7.114;2023-04-09T13:33:31;3.88;;;2.53;;
22531;SDS011;11432;46.924;7.114;2023-04-09T13:35:57;2.45;;;1.90;;
22531;SDS011;11432;46.924;7.114;2023-04-09T13:38:22;3.40;;;2.30;;
22531;SDS011;11432;46.924;7.114;2023-04-09T13:40:48;2.70;;;1.90;;
22531;SDS011;11432;46.924;7.114;2023-04-09T13:43:14;3.20;;;2.17;;
22531;SDS011;11432;46.924;7.114;2023-04-09T13:45:40;3.75;;;1.90;;
22531;SDS011;11432;46.924;7.114;2023-04-09T13:48:05;2.97;;;2.20;;
22531;SDS011;11432;46.924;7.114;2023-04-09T13:50:31;2.65;;;2.15;;
22531;SDS011;11432;46.924;7.114;2023-04-09T13:52:57;2.38;;;1.60;;
22531;SDS011;11432;46.924;7.114;2023-04-09T13:55:23;3.03;;;2.15;;
22531;SDS011;11432;46.924;7.114;2023-04-09T13:57:49;3.42;;;2.30;;
22531;SDS011;11432;46.924;7.114;2023-04-09T14:00:14;2.58;;;1.83;;
22531;SDS011;11432;46.924;7.114;2023-04-09T14:02:40;3.70;;;1.98;;
22531;SDS011;11432;46.924;7.114;2023-04-09T14:05:06;2.67;;;1.83;;
22531;SDS011;11432;46.924;7.114;2023-04-09T14:07:31;2.85;;;2.35;;
22531;SDS011;11432;46.924;7.114;2023-04-09T14:09:57;3.22;;;2.00;;
22531;SDS011;11432;46.924;7.114;2023-04-09T14:12:23;3.03;;;1.90;;
22531;SDS011;11432;46.924;7.114;2023-04-09T14:14:48;2.78;;;1.73;;
22531;SDS011;11432;46.924;7.114;2023-04-09T14:17:14;2.50;;;1.42;;
22531;SDS011;11432;46.924;7.114;2023-04-09T14:19:40;2.63;;;1.52;;
22531;SDS011;11432;46.924;7.114;2023-04-09T14:22:05;2.95;;;2.08;;
22531;SDS011;11432;46.924;7.114;2023-04-09T14:24:32;2.60;;;1.90;;
22531;SDS011;11432;46.924;7.114;2023-04-09T14:27:03;2.38;;;1.55;;
22531;SDS011;11432;46.924;7.114;2023-04-09T14:29:30;3.08;;;1.73;;
22531;SDS011;11432;46.924;7.114;2023-04-09T14:31:55;1.70;;;1.25;;
22531;SDS011;11432;46.924;7.114;2023-04-09T14:34:21;2.05;;;1.35;;
22531;SDS011;11432;46.924;7.114;2023-04-09T14:36:47;2.58;;;1.60;;
22531;SDS011;11432;46.924;7.114;2023-04-09T14:39:12;1.95;;;1.55;;
22531;SDS011;11432;46.924;7.114;2023-04-09T14:41:38;3.63;;;1.80;;
22531;SDS011;11432;46.924;7.114;2023-04-09T14:44:05;2.50;;;1.60;;
22531;SDS011;11432;46.924;7.114;2023-04-09T14:46:30;3.97;;;1.95;;
22531;SDS011;11432;46.924;7.114;2023-04-09T14:48:56;3.08;;;1.90;;
22531;SDS011;11432;46.924;7.114;2023-04-09T14:51:24;2.90;;;1.42;;
22531;SDS011;11432;46.924;7.114;2023-04-09T14:53:51;2.03;;;1.27;;
22531;SDS011;11432;46.924;7.114;2023-04-09T14:56:17;1.92;;;1.20;;
22531;SDS011;11432;46.924;7.114;2023-04-09T14:58:43;1.60;;;1.05;;